Hiram, Arkansas
Current Conditions -  °F | °C
As of 6:56 AM on Wednesday 26 Nov 2014 (Local Time) from KSRC Reporting Station
Clear Clear  
Wind Chill: 27°   Ceiling: Unl
Heat Index: 27°   Visibility: 10mi
Dew Point: 26°   Wind: 3mph
Humidity: 96%   Direction: 10°N
Pressure: 30.1"   Gusts: NA
Location:  35.4452°N, 91.9033°W
Report Text: KSRC 261256Z AUTO 01003KT 10SM CLR M03/M03 A3010 RMK AO2 SLP200 T10281033 FZRANO TSNO
Loading
Personal Weather Stations






























Interactive Weather Map New forecast layout! Learn more

10-Day Weather Forecast

Advertisements
Track Severe Weather on mobile